sensor_id;sensor_type;location;lat;lon;timestamp;P1;durP1;ratioP1;P2;durP2;ratioP2
65641;SDS011;52340;-6.720;108.544;2023-04-19T00:00:22;48.13;;;32.33;;
65641;SDS011;52340;-6.720;108.544;2023-04-19T00:01:25;42.95;;;31.05;;
65641;SDS011;52340;-6.720;108.544;2023-04-19T00:02:26;46.05;;;32.22;;
65641;SDS011;52340;-6.720;108.544;2023-04-19T00:03:30;45.78;;;31.48;;
65641;SDS011;52340;-6.720;108.544;2023-04-19T00:04:32;43.08;;;31.58;;
65641;SDS011;52340;-6.720;108.544;2023-04-19T00:05:33;47.22;;;30.38;;
65641;SDS011;52340;-6.720;108.544;2023-04-19T00:06:35;42.60;;;29.13;;
65641;SDS011;52340;-6.720;108.544;2023-04-19T00:07:37;44.10;;;29.60;;
65641;SDS011;52340;-6.720;108.544;2023-04-19T00:08:39;41.15;;;29.52;;
65641;SDS011;52340;-6.720;108.544;2023-04-19T00:09:41;41.10;;;29.52;;
65641;SDS011;52340;-6.720;108.544;2023-04-19T00:10:43;44.70;;;30.38;;
65641;SDS011;52340;-6.720;108.544;2023-04-19T00:11:45;41.28;;;29.20;;
65641;SDS011;52340;-6.720;108.544;2023-04-19T00:12:48;44.42;;;29.92;;
65641;SDS011;52340;-6.720;108.544;2023-04-19T00:13:50;41.50;;;27.80;;
65641;SDS011;52340;-6.720;108.544;2023-04-19T00:14:52;44.63;;;29.45;;
65641;SDS011;52340;-6.720;108.544;2023-04-19T00:15:54;40.72;;;27.30;;
65641;SDS011;52340;-6.720;108.544;2023-04-19T00:18:56;45.97;;;29.50;;
65641;SDS011;52340;-6.720;108.544;2023-04-19T00:19:58;46.28;;;28.92;;
65641;SDS011;52340;-6.720;108.544;2023-04-19T00:20:59;41.35;;;27.85;;
65641;SDS011;52340;-6.720;108.544;2023-04-19T00:22:01;41.25;;;27.95;;
65641;SDS011;52340;-6.720;108.544;2023-04-19T00:23:03;40.90;;;27.20;;
65641;SDS011;52340;-6.720;108.544;2023-04-19T00:24:05;38.72;;;26.98;;
65641;SDS011;52340;-6.720;108.544;2023-04-19T00:25:08;39.30;;;27.05;;
65641;SDS011;52340;-6.720;108.544;2023-04-19T00:26:10;36.78;;;26.55;;
65641;SDS011;52340;-6.720;108.544;2023-04-19T00:27:12;38.30;;;26.98;;
65641;SDS011;52340;-6.720;108.544;2023-04-19T00:28:15;35.20;;;24.33;;
65641;SDS011;52340;-6.720;108.544;2023-04-19T00:29:17;39.75;;;28.42;;
65641;SDS011;52340;-6.720;108.544;2023-04-19T00:30:19;39.40;;;27.45;;
65641;SDS011;52340;-6.720;108.544;2023-04-19T00:31:21;35.80;;;26.13;;
65641;SDS011;52340;-6.720;108.544;2023-04-19T00:32:24;36.50;;;26.50;;
65641;SDS011;52340;-6.720;108.544;2023-04-19T00:33:26;39.33;;;27.60;;
65641;SDS011;52340;-6.720;108.544;2023-04-19T00:34:28;37.20;;;26.45;;
65641;SDS011;52340;-6.720;108.544;2023-04-19T00:35:30;37.50;;;26.08;;
65641;SDS011;52340;-6.720;108.544;2023-04-19T00:36:32;41.40;;;27.40;;
65641;SDS011;52340;-6.720;108.544;2023-04-19T00:37:34;38.75;;;27.40;;
65641;SDS011;52340;-6.720;108.544;2023-04-19T00:38:35;37.72;;;25.98;;
65641;SDS011;52340;-6.720;108.544;2023-04-19T00:39:37;40.53;;;26.77;;
65641;SDS011;52340;-6.720;108.544;2023-04-19T00:40:39;37.45;;;26.50;;
65641;SDS011;52340;-6.720;108.544;2023-04-19T00:41:41;38.53;;;26.98;;
65641;SDS011;52340;-6.720;108.544;2023-04-19T00:43:51;36.15;;;25.17;;
65641;SDS011;52340;-6.720;108.544;2023-04-19T00:44:53;41.42;;;25.52;;
65641;SDS011;52340;-6.720;108.544;2023-04-19T00:45:55;39.53;;;26.40;;
65641;SDS011;52340;-6.720;108.544;2023-04-19T00:46:57;39.28;;;26.10;;
65641;SDS011;52340;-6.720;108.544;2023-04-19T00:48:00;35.72;;;25.58;;
65641;SDS011;52340;-6.720;108.544;2023-04-19T00:49:02;37.92;;;26.52;;
65641;SDS011;52340;-6.720;108.544;2023-04-19T00:50:04;38.67;;;26.55;;
65641;SDS011;52340;-6.720;108.544;2023-04-19T00:51:06;37.60;;;27.02;;
65641;SDS011;52340;-6.720;108.544;2023-04-19T00:52:08;37.55;;;26.48;;
65641;SDS011;52340;-6.720;108.544;2023-04-19T00:53:10;38.05;;;26.20;;
65641;SDS011;52340;-6.720;108.544;2023-04-19T00:54:12;34.42;;;24.15;;
65641;SDS011;52340;-6.720;108.544;2023-04-19T00:55:14;37.08;;;25.92;;
65641;SDS011;52340;-6.720;108.544;2023-04-19T00:56:15;33.05;;;24.27;;
65641;SDS011;52340;-6.720;108.544;2023-04-19T00:57:18;33.65;;;24.10;;
65641;SDS011;52340;-6.720;108.544;2023-04-19T00:58:20;35.38;;;23.85;;
65641;SDS011;52340;-6.720;108.544;2023-04-19T00:59:23;31.83;;;22.95;;
65641;SDS011;52340;-6.720;108.544;2023-04-19T01:00:25;33.85;;;23.70;;
65641;SDS011;52340;-6.720;108.544;2023-04-19T01:01:27;31.90;;;23.13;;
65641;SDS011;52340;-6.720;108.544;2023-04-19T01:02:28;30.95;;;23.02;;
65641;SDS011;52340;-6.720;108.544;2023-04-19T01:03:30;29.83;;;22.55;;
65641;SDS011;52340;-6.720;108.544;2023-04-19T01:04:32;31.20;;;21.73;;
65641;SDS011;52340;-6.720;108.544;2023-04-19T01:05:34;31.60;;;21.88;;
65641;SDS011;52340;-6.720;108.544;2023-04-19T01:06:38;29.42;;;20.67;;
65641;SDS011;52340;-6.720;108.544;2023-04-19T01:07:41;31.33;;;20.95;;
65641;SDS011;52340;-6.720;108.544;2023-04-19T01:09:50;28.00;;;20.27;;
65641;SDS011;52340;-6.720;108.544;2023-04-19T01:10:52;29.88;;;20.70;;
65641;SDS011;52340;-6.720;108.544;2023-04-19T01:11:54;31.38;;;19.52;;
65641;SDS011;52340;-6.720;108.544;2023-04-19T01:12:56;28.77;;;19.23;;
65641;SDS011;52340;-6.720;108.544;2023-04-19T01:13:58;27.15;;;19.15;;
65641;SDS011;52340;-6.720;108.544;2023-04-19T01:15:01;26.02;;;19.40;;
65641;SDS011;52340;-6.720;108.544;2023-04-19T01:16:03;29.70;;;19.67;;
65641;SDS011;52340;-6.720;108.544;2023-04-19T01:17:06;26.75;;;19.17;;
65641;SDS011;52340;-6.720;108.544;2023-04-19T01:18:08;28.27;;;18.75;;
65641;SDS011;52340;-6.720;108.544;2023-04-19T01:19:10;27.25;;;19.02;;
65641;SDS011;52340;-6.720;108.544;2023-04-19T01:20:11;25.50;;;18.35;;
65641;SDS011;52340;-6.720;108.544;2023-04-19T01:21:13;26.75;;;17.90;;
65641;SDS011;52340;-6.720;108.544;2023-04-19T01:22:17;28.63;;;18.65;;
65641;SDS011;52340;-6.720;108.544;2023-04-19T01:23:20;25.55;;;17.08;;
65641;SDS011;52340;-6.720;108.544;2023-04-19T01:24:24;24.10;;;17.63;;
65641;SDS011;52340;-6.720;108.544;2023-04-19T01:25:26;26.33;;;17.35;;
65641;SDS011;52340;-6.720;108.544;2023-04-19T01:26:27;25.33;;;17.90;;
65641;SDS011;52340;-6.720;108.544;2023-04-19T01:27:32;24.60;;;17.80;;
65641;SDS011;52340;-6.720;108.544;2023-04-19T01:28:34;24.38;;;17.35;;
65641;SDS011;52340;-6.720;108.544;2023-04-19T01:29:36;26.38;;;18.05;;
65641;SDS011;52340;-6.720;108.544;2023-04-19T01:31:38;23.83;;;16.93;;
65641;SDS011;52340;-6.720;108.544;2023-04-19T01:32:41;24.13;;;17.00;;
65641;SDS011;52340;-6.720;108.544;2023-04-19T01:34:47;24.30;;;16.88;;
65641;SDS011;52340;-6.720;108.544;2023-04-19T01:35:50;22.80;;;16.17;;
65641;SDS011;52340;-6.720;108.544;2023-04-19T01:37:53;23.97;;;16.87;;
65641;SDS011;52340;-6.720;108.544;2023-04-19T01:38:56;25.65;;;16.98;;
65641;SDS011;52340;-6.720;108.544;2023-04-19T01:39:58;27.45;;;18.13;;
65641;SDS011;52340;-6.720;108.544;2023-04-19T01:40:59;26.77;;;17.52;;
65641;SDS011;52340;-6.720;108.544;2023-04-19T01:42:01;24.80;;;17.92;;
65641;SDS011;52340;-6.720;108.544;2023-04-19T01:43:03;25.00;;;16.95;;
65641;SDS011;52340;-6.720;108.544;2023-04-19T01:44:05;23.88;;;17.38;;
65641;SDS011;52340;-6.720;108.544;2023-04-19T01:45:07;22.92;;;16.75;;
65641;SDS011;52340;-6.720;108.544;2023-04-19T01:46:09;26.35;;;17.83;;
65641;SDS011;52340;-6.720;108.544;2023-04-19T01:47:11;23.17;;;17.27;;
65641;SDS011;52340;-6.720;108.544;2023-04-19T01:48:15;26.17;;;17.45;;
65641;SDS011;52340;-6.720;108.544;2023-04-19T01:49:20;23.27;;;16.52;;
65641;SDS011;52340;-6.720;108.544;2023-04-19T01:50:22;25.45;;;17.30;;
65641;SDS011;52340;-6.720;108.544;2023-04-19T01:51:24;25.48;;;16.88;;
65641;SDS011;52340;-6.720;108.544;2023-04-19T01:52:25;26.00;;;16.95;;
65641;SDS011;52340;-6.720;108.544;2023-04-19T01:53:31;25.92;;;17.77;;
65641;SDS011;52340;-6.720;108.544;2023-04-19T01:54:33;25.48;;;16.98;;
65641;SDS011;52340;-6.720;108.544;2023-04-19T01:55:35;25.25;;;17.02;;
65641;SDS011;52340;-6.720;108.544;2023-04-19T01:56:42;25.92;;;17.60;;
65641;SDS011;52340;-6.720;108.544;2023-04-19T01:57:47;23.80;;;17.23;;
65641;SDS011;52340;-6.720;108.544;2023-04-19T01:58:49;24.00;;;17.23;;
65641;SDS011;52340;-6.720;108.544;2023-04-19T01:59:51;23.67;;;17.42;;
65641;SDS011;52340;-6.720;108.544;2023-04-19T02:00:56;24.92;;;17.55;;
65641;SDS011;52340;-6.720;108.544;2023-04-19T02:01:58;25.63;;;18.35;;
65641;SDS011;52340;-6.720;108.544;2023-04-19T02:03:00;27.90;;;18.27;;
65641;SDS011;52340;-6.720;108.544;2023-04-19T02:04:02;26.90;;;18.13;;
65641;SDS011;52340;-6.720;108.544;2023-04-19T02:05:04;24.67;;;17.52;;
65641;SDS011;52340;-6.720;108.544;2023-04-19T02:06:09;25.70;;;17.73;;
65641;SDS011;52340;-6.720;108.544;2023-04-19T02:07:11;25.17;;;16.98;;
65641;SDS011;52340;-6.720;108.544;2023-04-19T02:08:16;25.15;;;17.17;;
65641;SDS011;52340;-6.720;108.544;2023-04-19T02:09:19;23.73;;;14.93;;
65641;SDS011;52340;-6.720;108.544;2023-04-19T02:10:21;25.27;;;16.83;;
65641;SDS011;52340;-6.720;108.544;2023-04-19T02:11:23;22.48;;;14.98;;
65641;SDS011;52340;-6.720;108.544;2023-04-19T02:12:25;24.55;;;16.75;;
65641;SDS011;52340;-6.720;108.544;2023-04-19T02:13:27;23.55;;;16.30;;
65641;SDS011;52340;-6.720;108.544;2023-04-19T02:15:29;24.03;;;16.60;;
65641;SDS011;52340;-6.720;108.544;2023-04-19T02:16:31;21.02;;;14.93;;
65641;SDS011;52340;-6.720;108.544;2023-04-19T02:17:33;23.02;;;16.30;;
65641;SDS011;52340;-6.720;108.544;2023-04-19T02:18:34;22.70;;;16.67;;
65641;SDS011;52340;-6.720;108.544;2023-04-19T02:19:36;23.95;;;16.90;;
65641;SDS011;52340;-6.720;108.544;2023-04-19T02:20:38;24.75;;;15.55;;
65641;SDS011;52340;-6.720;108.544;2023-04-19T02:22:43;24.90;;;17.08;;
65641;SDS011;52340;-6.720;108.544;2023-04-19T02:23:45;26.63;;;17.40;;
65641;SDS011;52340;-6.720;108.544;2023-04-19T02:24:48;23.02;;;16.58;;
65641;SDS011;52340;-6.720;108.544;2023-04-19T02:25:50;23.10;;;16.25;;
65641;SDS011;52340;-6.720;108.544;2023-04-19T02:26:52;24.00;;;16.38;;
65641;SDS011;52340;-6.720;108.544;2023-04-19T02:27:54;23.52;;;16.50;;
65641;SDS011;52340;-6.720;108.544;2023-04-19T02:28:56;23.67;;;15.55;;
65641;SDS011;52340;-6.720;108.544;2023-04-19T02:29:57;24.33;;;15.63;;
65641;SDS011;52340;-6.720;108.544;2023-04-19T02:31:02;21.50;;;14.73;;
65641;SDS011;52340;-6.720;108.544;2023-04-19T02:32:04;24.17;;;15.82;;
65641;SDS011;52340;-6.720;108.544;2023-04-19T02:33:06;21.95;;;14.60;;
65641;SDS011;52340;-6.720;108.544;2023-04-19T02:34:08;19.05;;;13.65;;
65641;SDS011;52340;-6.720;108.544;2023-04-19T02:35:11;20.15;;;13.60;;
65641;SDS011;52340;-6.720;108.544;2023-04-19T02:36:12;20.95;;;14.05;;
65641;SDS011;52340;-6.720;108.544;2023-04-19T02:37:14;18.05;;;13.27;;
65641;SDS011;52340;-6.720;108.544;2023-04-19T02:38:16;21.85;;;13.90;;
65641;SDS011;52340;-6.720;108.544;2023-04-19T02:39:18;19.00;;;13.00;;
65641;SDS011;52340;-6.720;108.544;2023-04-19T02:40:21;18.90;;;12.50;;
65641;SDS011;52340;-6.720;108.544;2023-04-19T02:41:23;18.08;;;13.05;;
65641;SDS011;52340;-6.720;108.544;2023-04-19T02:42:25;20.52;;;12.63;;
65641;SDS011;52340;-6.720;108.544;2023-04-19T02:43:26;18.15;;;12.18;;
65641;SDS011;52340;-6.720;108.544;2023-04-19T02:44:28;19.17;;;13.00;;
65641;SDS011;52340;-6.720;108.544;2023-04-19T02:45:32;17.00;;;12.10;;
65641;SDS011;52340;-6.720;108.544;2023-04-19T02:46:34;17.23;;;11.60;;
65641;SDS011;52340;-6.720;108.544;2023-04-19T02:47:36;18.45;;;12.25;;
65641;SDS011;52340;-6.720;108.544;2023-04-19T02:48:41;17.08;;;11.95;;
65641;SDS011;52340;-6.720;108.544;2023-04-19T02:49:42;16.17;;;11.85;;
65641;SDS011;52340;-6.720;108.544;2023-04-19T02:50:47;18.45;;;12.68;;
65641;SDS011;52340;-6.720;108.544;2023-04-19T02:52:56;15.95;;;11.00;;
65641;SDS011;52340;-6.720;108.544;2023-04-19T02:54:58;16.20;;;11.50;;
65641;SDS011;52340;-6.720;108.544;2023-04-19T02:56:05;15.23;;;11.45;;
65641;SDS011;52340;-6.720;108.544;2023-04-19T02:57:07;17.85;;;12.15;;
65641;SDS011;52340;-6.720;108.544;2023-04-19T02:58:09;17.42;;;11.77;;
65641;SDS011;52340;-6.720;108.544;2023-04-19T02:59:11;18.38;;;12.10;;
65641;SDS011;52340;-6.720;108.544;2023-04-19T03:00:16;19.98;;;12.32;;
65641;SDS011;52340;-6.720;108.544;2023-04-19T03:01:18;18.33;;;12.57;;
65641;SDS011;52340;-6.720;108.544;2023-04-19T03:02:19;18.58;;;12.98;;
65641;SDS011;52340;-6.720;108.544;2023-04-19T03:03:21;17.77;;;12.57;;
65641;SDS011;52340;-6.720;108.544;2023-04-19T03:04:24;18.08;;;13.65;;
65641;SDS011;52340;-6.720;108.544;2023-04-19T03:05:28;19.48;;;12.43;;
65641;SDS011;52340;-6.720;108.544;2023-04-19T03:07:32;18.77;;;12.80;;
65641;SDS011;52340;-6.720;108.544;2023-04-19T03:08:34;20.55;;;13.65;;
65641;SDS011;52340;-6.720;108.544;2023-04-19T03:09:36;19.73;;;13.05;;
65641;SDS011;52340;-6.720;108.544;2023-04-19T03:10:43;21.55;;;13.07;;
65641;SDS011;52340;-6.720;108.544;2023-04-19T03:11:47;17.52;;;12.38;;
65641;SDS011;52340;-6.720;108.544;2023-04-19T03:12:48;17.25;;;12.52;;
65641;SDS011;52340;-6.720;108.544;2023-04-19T03:13:50;18.73;;;12.73;;
65641;SDS011;52340;-6.720;108.544;2023-04-19T03:14:52;18.40;;;13.40;;
65641;SDS011;52340;-6.720;108.544;2023-04-19T03:15:53;20.27;;;13.63;;
65641;SDS011;52340;-6.720;108.544;2023-04-19T03:16:55;19.77;;;13.63;;
65641;SDS011;52340;-6.720;108.544;2023-04-19T03:17:57;22.23;;;13.32;;
65641;SDS011;52340;-6.720;108.544;2023-04-19T03:19:00;20.85;;;13.57;;
65641;SDS011;52340;-6.720;108.544;2023-04-19T03:20:02;19.83;;;13.93;;
65641;SDS011;52340;-6.720;108.544;2023-04-19T03:21:04;21.25;;;13.88;;
65641;SDS011;52340;-6.720;108.544;2023-04-19T03:22:06;19.50;;;13.32;;
65641;SDS011;52340;-6.720;108.544;2023-04-19T03:23:08;18.92;;;13.48;;
65641;SDS011;52340;-6.720;108.544;2023-04-19T03:26:13;21.02;;;14.13;;
65641;SDS011;52340;-6.720;108.544;2023-04-19T03:27:17;23.00;;;14.15;;
65641;SDS011;52340;-6.720;108.544;2023-04-19T03:28:19;21.90;;;14.65;;
65641;SDS011;52340;-6.720;108.544;2023-04-19T03:29:20;22.00;;;13.95;;
65641;SDS011;52340;-6.720;108.544;2023-04-19T03:30:22;20.00;;;13.52;;
65641;SDS011;52340;-6.720;108.544;2023-04-19T03:32:27;20.95;;;13.27;;
65641;SDS011;52340;-6.720;108.544;2023-04-19T03:33:29;20.17;;;14.02;;
65641;SDS011;52340;-6.720;108.544;2023-04-19T03:34:31;21.05;;;13.70;;
65641;SDS011;52340;-6.720;108.544;2023-04-19T03:35:33;19.05;;;13.07;;
65641;SDS011;52340;-6.720;108.544;2023-04-19T03:36:34;21.08;;;14.27;;
65641;SDS011;52340;-6.720;108.544;2023-04-19T03:37:36;19.65;;;13.68;;
65641;SDS011;52340;-6.720;108.544;2023-04-19T03:38:38;19.88;;;14.07;;
65641;SDS011;52340;-6.720;108.544;2023-04-19T03:39:40;19.55;;;13.40;;
65641;SDS011;52340;-6.720;108.544;2023-04-19T03:40:44;19.27;;;13.40;;
65641;SDS011;52340;-6.720;108.544;2023-04-19T03:41:46;18.65;;;12.70;;
65641;SDS011;52340;-6.720;108.544;2023-04-19T03:42:49;19.25;;;12.93;;
65641;SDS011;52340;-6.720;108.544;2023-04-19T03:43:51;20.38;;;13.68;;
65641;SDS011;52340;-6.720;108.544;2023-04-19T03:44:53;19.95;;;13.50;;
65641;SDS011;52340;-6.720;108.544;2023-04-19T03:45:55;20.63;;;13.32;;
65641;SDS011;52340;-6.720;108.544;2023-04-19T03:46:56;18.90;;;13.13;;
65641;SDS011;52340;-6.720;108.544;2023-04-19T03:47:58;20.67;;;13.20;;
65641;SDS011;52340;-6.720;108.544;2023-04-19T03:49:00;19.38;;;13.32;;
65641;SDS011;52340;-6.720;108.544;2023-04-19T03:50:02;18.23;;;12.98;;
65641;SDS011;52340;-6.720;108.544;2023-04-19T03:51:04;21.27;;;12.63;;
65641;SDS011;52340;-6.720;108.544;2023-04-19T03:52:06;17.88;;;12.60;;
65641;SDS011;52340;-6.720;108.544;2023-04-19T03:53:07;19.73;;;12.55;;
65641;SDS011;52340;-6.720;108.544;2023-04-19T03:54:10;17.75;;;12.40;;
65641;SDS011;52340;-6.720;108.544;2023-04-19T03:55:12;18.80;;;12.68;;
65641;SDS011;52340;-6.720;108.544;2023-04-19T03:56:14;20.17;;;12.75;;
65641;SDS011;52340;-6.720;108.544;2023-04-19T03:57:16;19.50;;;12.50;;
65641;SDS011;52340;-6.720;108.544;2023-04-19T03:58:19;18.65;;;13.20;;
65641;SDS011;52340;-6.720;108.544;2023-04-19T03:59:21;17.25;;;12.52;;
65641;SDS011;52340;-6.720;108.544;2023-04-19T04:00:23;17.95;;;13.18;;
65641;SDS011;52340;-6.720;108.544;2023-04-19T04:01:25;22.25;;;12.93;;
65641;SDS011;52340;-6.720;108.544;2023-04-19T04:02:26;19.00;;;13.63;;
65641;SDS011;52340;-6.720;108.544;2023-04-19T04:03:28;19.17;;;12.93;;
65641;SDS011;52340;-6.720;108.544;2023-04-19T04:04:30;17.85;;;13.05;;
65641;SDS011;52340;-6.720;108.544;2023-04-19T04:05:31;19.75;;;12.63;;
65641;SDS011;52340;-6.720;108.544;2023-04-19T04:06:34;18.45;;;12.55;;
65641;SDS011;52340;-6.720;108.544;2023-04-19T04:07:36;16.33;;;11.88;;
65641;SDS011;52340;-6.720;108.544;2023-04-19T04:08:37;18.80;;;12.48;;
65641;SDS011;52340;-6.720;108.544;2023-04-19T04:09:39;16.85;;;12.32;;
65641;SDS011;52340;-6.720;108.544;2023-04-19T04:10:41;18.55;;;12.85;;
65641;SDS011;52340;-6.720;108.544;2023-04-19T04:11:42;20.98;;;13.07;;
65641;SDS011;52340;-6.720;108.544;2023-04-19T04:12:44;18.38;;;12.65;;
65641;SDS011;52340;-6.720;108.544;2023-04-19T04:13:50;17.17;;;12.60;;
65641;SDS011;52340;-6.720;108.544;2023-04-19T04:14:52;16.95;;;12.48;;
65641;SDS011;52340;-6.720;108.544;2023-04-19T04:16:57;22.40;;;13.32;;
65641;SDS011;52340;-6.720;108.544;2023-04-19T04:17:59;20.13;;;13.80;;
65641;SDS011;52340;-6.720;108.544;2023-04-19T04:19:01;18.10;;;12.88;;
65641;SDS011;52340;-6.720;108.544;2023-04-19T04:20:03;18.65;;;13.02;;
65641;SDS011;52340;-6.720;108.544;2023-04-19T04:21:05;18.60;;;12.68;;
65641;SDS011;52340;-6.720;108.544;2023-04-19T04:22:10;17.05;;;13.43;;
65641;SDS011;52340;-6.720;108.544;2023-04-19T04:23:12;17.63;;;12.75;;
65641;SDS011;52340;-6.720;108.544;2023-04-19T04:24:16;17.10;;;13.20;;
65641;SDS011;52340;-6.720;108.544;2023-04-19T04:25:17;18.92;;;12.18;;
65641;SDS011;52340;-6.720;108.544;2023-04-19T04:26:19;18.30;;;13.40;;
65641;SDS011;52340;-6.720;108.544;2023-04-19T04:27:22;18.23;;;12.65;;
65641;SDS011;52340;-6.720;108.544;2023-04-19T04:28:24;17.25;;;12.50;;
65641;SDS011;52340;-6.720;108.544;2023-04-19T04:29:28;17.23;;;12.93;;
65641;SDS011;52340;-6.720;108.544;2023-04-19T04:30:30;16.23;;;11.88;;
65641;SDS011;52340;-6.720;108.544;2023-04-19T04:31:32;19.90;;;12.95;;
65641;SDS011;52340;-6.720;108.544;2023-04-19T04:32:34;17.42;;;12.85;;
65641;SDS011;52340;-6.720;108.544;2023-04-19T04:33:36;20.33;;;13.38;;
65641;SDS011;52340;-6.720;108.544;2023-04-19T04:34:38;18.10;;;12.90;;
65641;SDS011;52340;-6.720;108.544;2023-04-19T04:35:39;22.65;;;13.50;;
65641;SDS011;52340;-6.720;108.544;2023-04-19T04:36:41;20.50;;;13.25;;
65641;SDS011;52340;-6.720;108.544;2023-04-19T04:37:43;20.95;;;13.68;;
65641;SDS011;52340;-6.720;108.544;2023-04-19T04:38:45;19.45;;;12.88;;
65641;SDS011;52340;-6.720;108.544;2023-04-19T04:39:47;21.20;;;13.65;;
65641;SDS011;52340;-6.720;108.544;2023-04-19T04:40:48;18.30;;;13.75;;
65641;SDS011;52340;-6.720;108.544;2023-04-19T04:41:50;18.90;;;14.13;;
65641;SDS011;52340;-6.720;108.544;2023-04-19T04:42:52;19.23;;;14.38;;
65641;SDS011;52340;-6.720;108.544;2023-04-19T04:43:54;20.10;;;13.50;;
65641;SDS011;52340;-6.720;108.544;2023-04-19T04:44:57;19.15;;;14.27;;
65641;SDS011;52340;-6.720;108.544;2023-04-19T04:45:59;20.30;;;13.75;;
65641;SDS011;52340;-6.720;108.544;2023-04-19T04:47:03;20.55;;;13.75;;
65641;SDS011;52340;-6.720;108.544;2023-04-19T04:48:05;24.00;;;14.30;;
65641;SDS011;52340;-6.720;108.544;2023-04-19T04:49:07;21.13;;;14.25;;
65641;SDS011;52340;-6.720;108.544;2023-04-19T04:50:09;21.02;;;14.32;;
65641;SDS011;52340;-6.720;108.544;2023-04-19T04:51:13;20.38;;;14.88;;
65641;SDS011;52340;-6.720;108.544;2023-04-19T04:52:15;18.85;;;13.95;;
65641;SDS011;52340;-6.720;108.544;2023-04-19T04:53:17;17.58;;;13.13;;
65641;SDS011;52340;-6.720;108.544;2023-04-19T04:54:19;19.00;;;13.82;;
65641;SDS011;52340;-6.720;108.544;2023-04-19T04:55:20;19.67;;;14.30;;
65641;SDS011;52340;-6.720;108.544;2023-04-19T04:56:22;17.52;;;13.55;;
65641;SDS011;52340;-6.720;108.544;2023-04-19T04:58:31;18.27;;;13.02;;
65641;SDS011;52340;-6.720;108.544;2023-04-19T04:59:33;19.02;;;13.50;;
65641;SDS011;52340;-6.720;108.544;2023-04-19T05:01:53;18.70;;;13.35;;
65641;SDS011;52340;-6.720;108.544;2023-04-19T05:05:07;16.63;;;12.82;;
65641;SDS011;52340;-6.720;108.544;2023-04-19T05:06:09;20.27;;;13.55;;
65641;SDS011;52340;-6.720;108.544;2023-04-19T05:07:13;18.70;;;14.00;;
65641;SDS011;52340;-6.720;108.544;2023-04-19T05:08:15;18.65;;;13.57;;
65641;SDS011;52340;-6.720;108.544;2023-04-19T05:09:16;19.23;;;13.77;;
65641;SDS011;52340;-6.720;108.544;2023-04-19T05:10:18;20.17;;;13.98;;
65641;SDS011;52340;-6.720;108.544;2023-04-19T05:11:20;18.80;;;13.82;;
65641;SDS011;52340;-6.720;108.544;2023-04-19T05:12:21;17.25;;;12.98;;
65641;SDS011;52340;-6.720;108.544;2023-04-19T05:14:28;18.75;;;13.18;;
65641;SDS011;52340;-6.720;108.544;2023-04-19T05:16:39;17.55;;;12.93;;
65641;SDS011;52340;-6.720;108.544;2023-04-19T05:18:46;16.73;;;12.50;;
65641;SDS011;52340;-6.720;108.544;2023-04-19T05:21:00;17.52;;;12.27;;
65641;SDS011;52340;-6.720;108.544;2023-04-19T05:22:02;18.33;;;13.80;;
65641;SDS011;52340;-6.720;108.544;2023-04-19T05:24:08;18.25;;;13.93;;
65641;SDS011;52340;-6.720;108.544;2023-04-19T05:25:09;19.08;;;13.50;;
65641;SDS011;52340;-6.720;108.544;2023-04-19T05:26:11;18.45;;;13.70;;
65641;SDS011;52340;-6.720;108.544;2023-04-19T05:27:13;19.35;;;13.45;;
65641;SDS011;52340;-6.720;108.544;2023-04-19T05:28:15;18.27;;;13.25;;
65641;SDS011;52340;-6.720;108.544;2023-04-19T05:29:17;20.73;;;13.98;;
65641;SDS011;52340;-6.720;108.544;2023-04-19T05:30:18;20.90;;;14.60;;
65641;SDS011;52340;-6.720;108.544;2023-04-19T05:31:25;20.13;;;13.77;;
65641;SDS011;52340;-6.720;108.544;2023-04-19T05:32:27;17.67;;;14.07;;
65641;SDS011;52340;-6.720;108.544;2023-04-19T05:33:28;20.27;;;14.73;;
65641;SDS011;52340;-6.720;108.544;2023-04-19T05:34:32;20.05;;;14.10;;
65641;SDS011;52340;-6.720;108.544;2023-04-19T05:35:36;16.80;;;12.80;;
65641;SDS011;52340;-6.720;108.544;2023-04-19T05:36:37;18.30;;;14.27;;
65641;SDS011;52340;-6.720;108.544;2023-04-19T05:37:39;17.95;;;13.77;;
65641;SDS011;52340;-6.720;108.544;2023-04-19T05:38:41;19.58;;;14.52;;
65641;SDS011;52340;-6.720;108.544;2023-04-19T05:39:42;18.55;;;13.43;;
65641;SDS011;52340;-6.720;108.544;2023-04-19T05:40:44;18.65;;;14.15;;
65641;SDS011;52340;-6.720;108.544;2023-04-19T05:41:46;17.02;;;13.45;;
65641;SDS011;52340;-6.720;108.544;2023-04-19T05:43:50;19.77;;;13.70;;
65641;SDS011;52340;-6.720;108.544;2023-04-19T05:44:52;19.88;;;14.07;;
65641;SDS011;52340;-6.720;108.544;2023-04-19T05:45:53;19.88;;;13.48;;
65641;SDS011;52340;-6.720;108.544;2023-04-19T05:46:55;19.23;;;14.43;;
65641;SDS011;52340;-6.720;108.544;2023-04-19T05:47:57;18.98;;;14.20;;
65641;SDS011;52340;-6.720;108.544;2023-04-19T05:49:01;17.48;;;13.52;;
65641;SDS011;52340;-6.720;108.544;2023-04-19T05:50:04;17.95;;;14.05;;
65641;SDS011;52340;-6.720;108.544;2023-04-19T05:51:06;18.65;;;13.48;;
65641;SDS011;52340;-6.720;108.544;2023-04-19T05:52:08;19.65;;;13.80;;
65641;SDS011;52340;-6.720;108.544;2023-04-19T05:53:12;17.83;;;13.27;;
65641;SDS011;52340;-6.720;108.544;2023-04-19T05:54:17;18.08;;;12.82;;
65641;SDS011;52340;-6.720;108.544;2023-04-19T05:55:19;16.98;;;11.85;;
65641;SDS011;52340;-6.720;108.544;2023-04-19T05:57:30;18.58;;;12.85;;
65641;SDS011;52340;-6.720;108.544;2023-04-19T05:58:32;17.13;;;12.57;;
65641;SDS011;52340;-6.720;108.544;2023-04-19T05:59:34;17.55;;;12.60;;
65641;SDS011;52340;-6.720;108.544;2023-04-19T06:00:36;17.25;;;12.10;;
65641;SDS011;52340;-6.720;108.544;2023-04-19T06:01:42;18.38;;;12.32;;
65641;SDS011;52340;-6.720;108.544;2023-04-19T06:02:44;17.23;;;12.43;;
65641;SDS011;52340;-6.720;108.544;2023-04-19T06:03:45;18.33;;;13.50;;
65641;SDS011;52340;-6.720;108.544;2023-04-19T06:04:47;17.52;;;13.20;;
65641;SDS011;52340;-6.720;108.544;2023-04-19T06:05:50;21.30;;;13.02;;
65641;SDS011;52340;-6.720;108.544;2023-04-19T06:06:52;22.52;;;15.90;;
65641;SDS011;52340;-6.720;108.544;2023-04-19T06:07:53;20.17;;;14.88;;
65641;SDS011;52340;-6.720;108.544;2023-04-19T06:08:55;18.33;;;12.98;;
65641;SDS011;52340;-6.720;108.544;2023-04-19T06:09:57;19.55;;;13.07;;
65641;SDS011;52340;-6.720;108.544;2023-04-19T06:10:58;19.95;;;14.70;;
65641;SDS011;52340;-6.720;108.544;2023-04-19T06:13:00;20.23;;;13.87;;
65641;SDS011;52340;-6.720;108.544;2023-04-19T06:16:21;24.95;;;15.15;;
65641;SDS011;52340;-6.720;108.544;2023-04-19T06:18:26;18.23;;;13.43;;
65641;SDS011;52340;-6.720;108.544;2023-04-19T06:19:28;22.33;;;14.38;;
65641;SDS011;52340;-6.720;108.544;2023-04-19T06:20:29;24.40;;;16.75;;
65641;SDS011;52340;-6.720;108.544;2023-04-19T06:21:35;21.15;;;15.50;;
65641;SDS011;52340;-6.720;108.544;2023-04-19T06:22:40;22.48;;;15.45;;
65641;SDS011;52340;-6.720;108.544;2023-04-19T06:23:45;18.98;;;13.63;;
65641;SDS011;52340;-6.720;108.544;2023-04-19T06:24:47;18.98;;;13.50;;
65641;SDS011;52340;-6.720;108.544;2023-04-19T06:25:51;18.85;;;13.25;;
65641;SDS011;52340;-6.720;108.544;2023-04-19T06:26:53;16.70;;;12.85;;